Time;durP1;ratioP1;P1;durP2;ratioP2;P2;SDS_P1;SDS_P2;PMS_P1;PMS_P2;Temp;Humidity;BMP_temperature;BMP_pressure;BME280_temperature;BME280_humidity;BME280_pressure;Samples;Min_cycle;Max_cycle;Signal;HPM_P1;HPM_P2
2023/05/31 00:03:35;;;;;;;3.90;1.60;;;;;;;12.74;47.20;100211.41;436349;1250;139333;-61
2023/05/31 00:13:41;;;;;;;3.60;1.10;;;;;;;12.68;47.42;100213.77;436847;1250;140097;-60
2023/05/31 00:23:47;;;;;;;2.60;0.90;;;;;;;12.57;47.78;100221.11;436260;1253;139074;-61
2023/05/31 00:33:52;;;;;;;4.30;1.70;;;;;;;12.37;48.37;100223.90;436388;1253;139061;-60
2023/05/31 00:43:58;;;;;;;4.70;1.80;;;;;;;12.18;48.91;100223.85;436471;1252;139173;-61
2023/05/31 00:54:04;;;;;;;2.50;1.50;;;;;;;11.96;49.49;100227.58;436542;1251;140493;-59
2023/05/31 01:04:11;;;;;;;3.70;1.30;;;;;;;11.73;50.20;100227.64;438889;1250;138836;-61
2023/05/31 01:14:28;;;;;;;3.10;1.40;;;;;;;11.47;50.91;100229.66;438183;1250;138680;-59
2023/05/31 01:24:49;;;;;;;3.80;1.70;;;;;;;11.20;51.73;100229.59;437076;1252;139340;-61
2023/05/31 01:34:55;;;;;;;3.90;1.50;;;;;;;10.97;52.42;100233.85;437116;1251;139442;-62
2023/05/31 01:45:02;;;;;;;5.50;2.20;;;;;;;10.76;53.11;100236.21;436917;1251;138612;-61
2023/05/31 01:55:10;;;;;;;5.00;1.50;;;;;;;10.44;54.41;100243.50;437046;1249;139049;-60
2023/05/31 02:05:16;;;;;;;2.90;1.90;;;;;;;10.10;55.73;100248.92;436647;1251;138749;-60
2023/05/31 02:15:23;;;;;;;3.30;1.40;;;;;;;9.85;56.56;100258.95;436654;1253;140328;-59
2023/05/31 02:25:29;;;;;;;4.50;1.50;;;;;;;9.75;56.94;100260.13;437123;1251;138361;-60
2023/05/31 02:35:35;;;;;;;3.70;1.80;;;;;;;9.64;57.52;100261.88;437011;1253;138953;-60
2023/05/31 02:45:40;;;;;;;3.80;1.70;;;;;;;9.61;57.71;100254.20;436905;1251;139099;-60
2023/05/31 02:55:46;;;;;;;5.60;2.50;;;;;;;9.80;57.48;100262.14;437416;1251;139382;-60
2023/05/31 03:05:54;;;;;;;11.20;2.70;;;;;;;10.60;57.31;100263.10;436830;1251;139548;-61
2023/05/31 03:16:00;;;;;;;3.50;1.30;;;;;;;14.00;54.12;100261.00;436763;1251;138669;-60
2023/05/31 03:26:06;;;;;;;2.90;1.80;;;;;;;15.92;48.89;100265.95;436594;1253;139476;-60
2023/05/31 03:36:12;;;;;;;4.80;1.70;;;;;;;14.73;47.78;100267.82;436709;1253;139094;-60
2023/05/31 03:46:18;;;;;;;3.00;1.70;;;;;;;13.75;48.36;100267.76;436824;1253;138477;-60
2023/05/31 03:56:25;;;;;;;4.70;2.00;;;;;;;13.45;48.84;100266.33;436821;1253;139241;-60
2023/05/31 04:06:30;;;;;;;2.80;1.60;;;;;;;17.40;47.58;100263.20;437039;1253;139268;-62
2023/05/31 04:16:36;;;;;;;3.20;1.60;;;;;;;25.02;39.14;100260.39;436687;1250;139953;-61
2023/05/31 04:26:42;;;;;;;3.40;1.70;;;;;;;28.76;32.55;100255.40;436712;1252;138840;-61
2023/05/31 04:36:49;;;;;;;3.70;1.50;;;;;;;32.26;28.51;100242.20;436837;1251;139103;-60
2023/05/31 04:46:56;;;;;;;1.80;1.40;;;;;;;34.97;24.37;100244.91;437587;1251;138544;-61
2023/05/31 04:57:03;;;;;;;2.30;1.10;;;;;;;36.06;22.21;100250.81;437239;1251;139404;-62
2023/05/31 05:07:09;;;;;;;3.50;1.60;;;;;;;38.58;20.10;100253.50;437444;1253;138570;-61
2023/05/31 05:17:15;;;;;;;4.00;2.10;;;;;;;39.16;18.43;100254.90;436923;1251;139267;-62
2023/05/31 05:27:21;;;;;;;4.70;2.30;;;;;;;39.29;17.48;100246.60;436782;1251;138436;-61
2023/05/31 05:37:27;;;;;;;10.10;2.30;;;;;;;41.04;16.58;100253.92;436811;1251;139012;-59
2023/05/31 05:47:33;;;;;;;15.40;2.20;;;;;;;43.55;15.17;100257.04;436635;1251;138739;-60
2023/05/31 05:57:38;;;;;;;1.70;1.00;;;;;;;43.90;14.32;100259.75;436499;1253;140288;-61
2023/05/31 06:07:44;;;;;;;7.70;2.80;;;;;;;45.20;13.70;100255.13;436519;1251;140397;-62
2023/05/31 06:17:52;;;;;;;2.60;1.60;;;;;;;46.80;12.89;100251.41;436738;1251;139233;-62
2023/05/31 06:27:58;;;;;;;1.30;1.20;;;;;;;47.56;12.25;100250.31;436498;1250;139093;-62
2023/05/31 06:38:04;;;;;;;7.30;1.70;;;;;;;48.02;11.89;100241.71;436465;1252;138693;-62
2023/05/31 06:48:10;;;;;;;5.20;1.70;;;;;;;49.21;11.36;100235.79;436367;1253;139167;-64
2023/05/31 06:58:19;;;;;;;2.80;1.90;;;;;;;49.28;10.99;100235.24;436595;1251;139130;-63
2023/05/31 07:08:24;;;;;;;3.60;2.70;;;;;;;50.49;10.68;100228.40;436473;1251;139470;-61
2023/05/31 07:18:31;;;;;;;8.40;5.00;;;;;;;52.29;10.18;100225.48;436089;1253;218223;-61
2023/05/31 07:28:37;;;;;;;9.00;5.00;;;;;;;53.57;9.56;100217.67;437029;1251;138558;-64
2023/05/31 07:38:43;;;;;;;5.30;4.90;;;;;;;53.58;9.32;100211.11;436469;1253;138546;-64
2023/05/31 07:48:49;;;;;;;3.40;1.60;;;;;;;52.70;9.45;100199.64;437034;1252;138471;-63
2023/05/31 07:58:56;;;;;;;5.50;1.30;;;;;;;46.39;10.19;100189.80;436947;1253;139049;-63
2023/05/31 08:09:02;;;;;;;5.40;2.30;;;;;;;36.33;13.32;100191.35;436521;1251;138940;-62
2023/05/31 08:19:08;;;;;;;2.70;1.10;;;;;;;31.69;15.80;100191.64;436745;1251;139359;-62
2023/05/31 08:29:14;;;;;;;6.80;0.80;;;;;;;28.81;18.36;100196.10;436916;1251;138941;-63
2023/05/31 08:39:20;;;;;;;5.20;1.20;;;;;;;26.75;19.64;100198.09;436755;1251;138584;-61
2023/05/31 08:49:26;;;;;;;2.50;1.30;;;;;;;25.31;21.03;100192.39;436348;1251;140583;-61
2023/05/31 08:59:36;;;;;;;3.10;0.90;;;;;;;24.96;21.84;100193.02;436411;1253;139434;-63
2023/05/31 09:09:42;;;;;;;7.40;1.70;;;;;;;24.99;22.21;100187.65;437123;1253;138474;-61
2023/05/31 09:19:54;;;;;;;4.50;0.90;;;;;;;24.55;23.02;100184.35;436769;1253;139739;-62
2023/05/31 09:30:04;;;;;;;2.80;1.10;;;;;;;24.13;23.29;100173.15;436861;1254;138629;-61
2023/05/31 09:40:13;;;;;;;2.50;0.90;;;;;;;23.43;23.25;100175.08;436946;1253;138750;-62
2023/05/31 09:50:20;;;;;;;3.00;1.00;;;;;;;23.19;23.03;100173.77;436752;1251;138817;-62
2023/05/31 10:00:28;;;;;;;3.50;1.80;;;;;;;22.79;22.88;100173.77;436306;1254;139161;-61
2023/05/31 10:10:33;;;;;;;4.50;1.80;;;;;;;22.69;23.14;100163.15;436952;1253;138606;-63
2023/05/31 10:20:42;;;;;;;2.90;1.00;;;;;;;22.34;23.94;100149.17;436567;1251;139968;-62
2023/05/31 10:30:50;;;;;;;4.90;1.40;;;;;;;21.84;24.06;100150.92;436998;1253;138973;-61
2023/05/31 10:41:03;;;;;;;5.30;1.20;;;;;;;21.60;23.86;100134.81;436730;1253;140103;-62
2023/05/31 10:51:10;;;;;;;4.50;1.60;;;;;;;21.40;22.76;100130.91;436925;1251;138800;-62
2023/05/31 11:01:20;;;;;;;3.60;0.80;;;;;;;21.46;23.17;100124.27;436670;1253;139669;-64
2023/05/31 11:11:47;;;;;;;1.90;0.70;;;;;;;21.41;22.98;100126.91;436510;1253;138985;-67
2023/05/31 11:21:54;;;;;;;2.40;1.40;;;;;;;21.11;22.74;100121.53;436642;1255;138832;-67
2023/05/31 11:32:01;;;;;;;1.60;0.80;;;;;;;20.98;23.05;100113.16;436312;1254;139753;-67
2023/05/31 11:42:09;;;;;;;3.40;0.80;;;;;;;20.92;23.13;100107.39;436973;1255;139006;-65
2023/05/31 11:52:18;;;;;;;7.90;1.00;;;;;;;21.06;23.02;100097.08;436963;1251;138693;-67
2023/05/31 12:02:24;;;;;;;2.40;0.80;;;;;;;21.19;22.79;100091.56;436372;1257;139262;-68
2023/05/31 12:12:30;;;;;;;7.00;1.60;;;;;;;21.22;23.11;100078.39;436368;1254;140071;-67
2023/05/31 12:22:36;;;;;;;2.30;1.30;;;;;;;21.31;23.23;100070.05;436306;1253;138921;-62
2023/05/31 12:32:47;;;;;;;2.80;0.80;;;;;;;21.31;23.18;100056.86;436419;1251;139406;-66
2023/05/31 12:43:02;;;;;;;7.70;1.50;;;;;;;21.39;22.65;100052.84;436554;1254;139308;-66
2023/05/31 12:53:09;;;;;;;6.60;1.60;;;;;;;21.55;22.23;100049.15;436447;1254;140351;-67
2023/05/31 13:03:14;;;;;;;2.00;1.20;;;;;;;21.77;22.54;100032.45;436488;1251;139193;-66
2023/05/31 13:13:21;;;;;;;1.20;0.80;;;;;;;22.07;21.66;100019.30;435529;1251;140035;-66
2023/05/31 13:23:27;;;;;;;1.80;1.30;;;;;;;21.99;21.72;100004.45;436342;1254;138886;-66
2023/05/31 13:33:33;;;;;;;1.50;0.60;;;;;;;21.81;21.67;99992.23;436309;1251;138697;-66
2023/05/31 13:43:39;;;;;;;1.30;0.70;;;;;;;21.56;21.40;99977.59;436150;1254;140103;-66
2023/05/31 13:53:44;;;;;;;3.40;0.70;;;;;;;21.23;21.76;99967.59;436178;1254;139995;-66
2023/05/31 14:03:50;;;;;;;7.70;1.50;;;;;;;21.20;22.36;99960.84;436345;1251;139152;-66
2023/05/31 14:13:57;;;;;;;0.80;0.60;;;;;;;21.02;22.45;99944.31;436262;1254;138665;-66
2023/05/31 14:24:03;;;;;;;2.50;0.30;;;;;;;20.94;22.63;99938.58;437014;1254;138465;-67
2023/05/31 14:34:09;;;;;;;0.60;0.60;;;;;;;20.89;22.29;99932.30;437736;1253;140088;-67
2023/05/31 14:44:16;;;;;;;1.70;0.70;;;;;;;20.86;22.54;99917.56;436720;1251;138727;-67
2023/05/31 14:54:22;;;;;;;1.80;0.70;;;;;;;21.00;22.96;99909.78;436764;1254;139830;-66
2023/05/31 15:04:27;;;;;;;0.80;0.70;;;;;;;21.00;23.02;99898.58;436604;1251;138945;-66
2023/05/31 15:14:33;;;;;;;1.90;0.70;;;;;;;20.99;22.98;99894.18;436432;1251;138307;-67
2023/05/31 15:24:39;;;;;;;2.50;0.70;;;;;;;20.96;22.92;99884.70;436573;1250;140405;-67
2023/05/31 15:34:45;;;;;;;0.80;0.60;;;;;;;20.94;22.83;99867.15;436739;1254;138326;-66
2023/05/31 15:44:51;;;;;;;2.00;1.70;;;;;;;20.99;22.64;99860.77;436206;1251;138469;-66
2023/05/31 15:54:57;;;;;;;2.00;0.90;;;;;;;21.03;22.40;99850.59;436171;1251;139284;-67
2023/05/31 16:05:03;;;;;;;2.80;0.80;;;;;;;21.17;21.66;99839.16;436235;1251;139298;-67
2023/05/31 16:15:11;;;;;;;2.60;0.80;;;;;;;21.19;21.79;99830.40;436200;1254;140111;-68
2023/05/31 16:25:16;;;;;;;4.90;1.20;;;;;;;21.17;21.95;99823.19;435925;1254;139516;-66
2023/05/31 16:35:23;;;;;;;6.20;1.00;;;;;;;21.05;22.31;99815.30;435583;1254;138689;-67
2023/05/31 16:45:29;;;;;;;3.80;0.70;;;;;;;21.05;22.67;99809.83;436902;1251;139031;-67
2023/05/31 16:55:35;;;;;;;5.50;1.10;;;;;;;21.01;23.13;99806.45;436783;1251;138330;-67
2023/05/31 17:05:42;;;;;;;1.30;0.90;;;;;;;20.88;23.08;99796.78;436232;1253;139221;-66
2023/05/31 17:15:48;;;;;;;5.60;1.20;;;;;;;20.68;23.07;99790.10;436497;1251;138467;-66
2023/05/31 17:25:54;;;;;;;15.50;2.50;;;;;;;20.48;23.57;99780.77;436421;1251;140628;-67
2023/05/31 17:36:00;;;;;;;5.50;1.50;;;;;;;20.27;23.85;99770.25;436636;1253;139054;-67
2023/05/31 17:46:06;;;;;;;4.10;1.90;;;;;;;20.07;23.81;99765.15;436586;1250;139042;-67
2023/05/31 17:56:12;;;;;;;7.60;1.70;;;;;;;19.77;24.75;99762.58;436786;1251;139529;-66
2023/05/31 18:06:18;;;;;;;42.00;5.70;;;;;;;19.35;26.00;99750.80;436842;1254;138442;-67
2023/05/31 18:16:24;;;;;;;12.20;1.90;;;;;;;18.96;27.30;99747.40;436567;1253;138737;-66
2023/05/31 18:26:30;;;;;;;18.30;2.70;;;;;;;18.54;28.48;99743.96;436245;1253;139215;-66
2023/05/31 18:36:36;;;;;;;23.00;3.80;;;;;;;17.98;30.52;99743.30;436396;1253;140267;-66
2023/05/31 18:46:42;;;;;;;12.30;2.70;;;;;;;17.39;31.92;99745.62;436666;1251;139119;-66
2023/05/31 18:56:48;;;;;;;15.40;4.80;;;;;;;16.82;33.88;99738.77;436570;1253;138571;-66
2023/05/31 19:06:54;;;;;;;9.10;3.10;;;;;;;16.29;35.95;99742.22;436740;1251;138574;-73
2023/05/31 19:17:00;;;;;;;7.00;3.00;;;;;;;15.76;37.90;99747.14;436723;1253;138344;-67
2023/05/31 19:27:09;;;;;;;7.40;2.20;;;;;;;15.26;39.69;99747.91;436646;1253;138591;-67
2023/05/31 19:37:15;;;;;;;6.90;2.90;;;;;;;14.86;41.12;99746.31;436649;1251;138872;-67
2023/05/31 19:47:22;;;;;;;14.50;3.50;;;;;;;14.43;41.95;99748.18;436969;1250;139380;-66
2023/05/31 19:57:28;;;;;;;8.80;3.60;;;;;;;14.02;43.20;99758.33;436847;1251;139666;-65
2023/05/31 20:07:34;;;;;;;13.90;3.70;;;;;;;13.63;44.86;99754.16;436378;1251;138913;-66
2023/05/31 20:17:40;;;;;;;23.50;14.60;;;;;;;13.24;45.97;99752.39;436794;1251;139898;-66
2023/05/31 20:27:46;;;;;;;15.10;7.60;;;;;;;12.89;46.71;99747.53;436760;1250;139579;-65
2023/05/31 20:37:52;;;;;;;11.70;7.60;;;;;;;12.58;47.86;99734.02;436791;1251;139498;-66
2023/05/31 20:47:57;;;;;;;22.20;14.00;;;;;;;12.30;48.93;99721.96;437072;1253;138840;-67
2023/05/31 20:58:04;;;;;;;29.00;17.70;;;;;;;12.01;49.81;99713.55;437211;1251;139282;-65
2023/05/31 21:08:10;;;;;;;22.80;15.50;;;;;;;11.72;50.91;99714.08;436809;1253;138689;-65
2023/05/31 21:18:16;;;;;;;24.10;13.30;;;;;;;11.40;51.72;99711.08;439649;1250;139189;-66
2023/05/31 21:28:22;;;;;;;20.60;12.10;;;;;;;11.24;52.46;99708.07;436794;1253;138923;-66
2023/05/31 21:38:28;;;;;;;19.40;12.80;;;;;;;11.00;53.10;99705.89;436956;1251;139270;-66
2023/05/31 21:48:34;;;;;;;19.70;14.10;;;;;;;10.83;54.20;99702.21;436736;1251;139753;-67
2023/05/31 21:58:40;;;;;;;18.00;11.50;;;;;;;10.65;55.25;99705.13;436668;1251;139652;-67
2023/05/31 22:08:47;;;;;;;19.90;11.20;;;;;;;10.45;56.03;99703.92;436410;1251;139093;-65
2023/05/31 22:18:55;;;;;;;18.60;10.10;;;;;;;10.27;56.78;99704.77;436667;1253;140174;-66
2023/05/31 22:29:00;;;;;;;15.70;9.70;;;;;;;10.13;57.19;99706.17;436665;1251;138761;-65
2023/05/31 22:39:06;;;;;;;17.90;9.40;;;;;;;9.98;57.56;99699.48;436872;1251;138481;-66
2023/05/31 22:49:12;;;;;;;17.40;8.60;;;;;;;9.84;58.06;99694.23;436426;1252;139654;-63
2023/05/31 22:59:18;;;;;;;12.20;8.00;;;;;;;9.71;58.61;99697.77;436282;1253;139259;-64
2023/05/31 23:09:25;;;;;;;16.90;8.30;;;;;;;9.60;59.05;99701.92;436583;1251;139585;-63
2023/05/31 23:19:32;;;;;;;12.40;6.80;;;;;;;9.46;59.52;99693.98;436399;1250;140238;-64
2023/05/31 23:29:38;;;;;;;9.90;6.40;;;;;;;9.38;59.98;99683.23;436547;1249;140849;-63
2023/05/31 23:39:44;;;;;;;12.50;5.90;;;;;;;9.29;60.46;99681.83;436360;1251;138935;-65
2023/05/31 23:49:50;;;;;;;10.10;6.50;;;;;;;9.17;61.05;99677.83;436482;1251;140836;-63
2023/05/31 23:59:56;;;;;;;11.00;5.70;;;;;;;9.06;61.40;99671.27;436373;1253;139913;-63
